CFG3CE EGKK-EDDF
Flight info
| Callsign | CFG3CE |
|---|---|
| Flight time | N/A |
| Altitude | 33000 |
| Route | DVR UL9 KONAN UL607 KOK DCT REMBA UL607 SPI T180 NIVNU/N0409F230 T847 IMCOM IMCOM1B |
| Aircraft | A320/M-SDE3FGHIRWY/LB1 |
Departure
| Time | 2026-05-04 13:33 |
|---|---|
| Airport | London Gatwick Airport (EGKK) |
Arrival
| Time | N/A |
|---|---|
| Airport | Frankfurt Main Airport (EDDF) |
| Time | Latitude | Longitude | Altitude | Speed | Heading |
|---|---|---|---|---|---|
| 2026-05-04 12:52 | 51.15987 | -0.17980 | 205 ft | 0 kts | 77° |
| 2026-05-04 13:14 | 51.15987 | -0.17985 | 205 ft | 3 kts | 77° |
| 2026-05-04 13:14 | 51.15980 | -0.18026 | 207 ft | 4 kts | 75° |
| 2026-05-04 13:14 | 51.15974 | -0.18064 | 214 ft | 2 kts | 77° |
| 2026-05-04 13:15 | 51.15971 | -0.18100 | 211 ft | 4 kts | 106° |
| 2026-05-04 13:15 | 51.15985 | -0.18127 | 214 ft | 4 kts | 166° |
| 2026-05-04 13:15 | 51.16005 | -0.18135 | 214 ft | 0 kts | 168° |
| 2026-05-04 13:22 | 51.15997 | -0.18132 | 215 ft | 7 kts | 168° |
| 2026-05-04 13:22 | 51.15920 | -0.18106 | 205 ft | 12 kts | 168° |
| 2026-05-04 13:22 | 51.15846 | -0.18081 | 208 ft | 10 kts | 168° |
| 2026-05-04 13:22 | 51.15782 | -0.18060 | 207 ft | 9 kts | 168° |
| 2026-05-04 13:23 | 51.15702 | -0.18051 | 212 ft | 12 kts | 203° |
| 2026-05-04 13:23 | 51.15673 | -0.18158 | 209 ft | 10 kts | 257° |
| 2026-05-04 13:23 | 51.15658 | -0.18261 | 212 ft | 10 kts | 257° |
| 2026-05-04 13:23 | 51.15631 | -0.18453 | 215 ft | 23 kts | 257° |
| 2026-05-04 13:24 | 51.15595 | -0.18708 | 210 ft | 22 kts | 256° |
| 2026-05-04 13:24 | 51.15549 | -0.18825 | 214 ft | 9 kts | 194° |
| 2026-05-04 13:24 | 51.15485 | -0.18807 | 208 ft | 12 kts | 168° |
| 2026-05-04 13:25 | 51.15269 | -0.18734 | 208 ft | 14 kts | 167° |
| 2026-05-04 13:25 | 51.15203 | -0.18710 | 205 ft | 6 kts | 168° |
| 2026-05-04 13:25 | 51.15166 | -0.18701 | 209 ft | 6 kts | 180° |
| 2026-05-04 13:25 | 51.15119 | -0.18806 | 207 ft | 17 kts | 260° |
| 2026-05-04 13:26 | 51.15086 | -0.19054 | 214 ft | 27 kts | 257° |
| 2026-05-04 13:26 | 51.15045 | -0.19352 | 205 ft | 28 kts | 258° |
| 2026-05-04 13:26 | 51.15004 | -0.19663 | 210 ft | 29 kts | 257° |
| 2026-05-04 13:26 | 51.14959 | -0.19985 | 205 ft | 30 kts | 257° |
| 2026-05-04 13:27 | 51.14912 | -0.20318 | 212 ft | 31 kts | 257° |
| 2026-05-04 13:27 | 51.14864 | -0.20645 | 208 ft | 28 kts | 258° |
| 2026-05-04 13:27 | 51.14823 | -0.20947 | 214 ft | 26 kts | 257° |
| 2026-05-04 13:27 | 51.14792 | -0.21158 | 208 ft | 12 kts | 254° |
| 2026-05-04 13:28 | 51.14772 | -0.21273 | 205 ft | 10 kts | 255° |
| 2026-05-04 13:28 | 51.14753 | -0.21375 | 213 ft | 10 kts | 245° |
| 2026-05-04 13:28 | 51.14691 | -0.21392 | 211 ft | 11 kts | 155° |
| 2026-05-04 13:28 | 51.14628 | -0.21335 | 207 ft | 8 kts | 165° |
| 2026-05-04 13:29 | 51.14613 | -0.21329 | 211 ft | 0 kts | 166° |
| 2026-05-04 13:30 | 51.14608 | -0.21327 | 205 ft | 4 kts | 166° |
| 2026-05-04 13:31 | 51.14566 | -0.21301 | 208 ft | 7 kts | 150° |
| 2026-05-04 13:31 | 51.14533 | -0.21255 | 205 ft | 6 kts | 129° |
| 2026-05-04 13:31 | 51.14519 | -0.21202 | 210 ft | 4 kts | 100° |
| 2026-05-04 13:31 | 51.14521 | -0.21171 | 208 ft | 0 kts | 79° |
| 2026-05-04 13:32 | 51.14523 | -0.21156 | 206 ft | 8 kts | 79° |
| 2026-05-04 13:32 | 51.14546 | -0.20983 | 210 ft | 48 kts | 77° |
| 2026-05-04 13:33 | 51.14669 | -0.20102 | 211 ft | 112 kts | 77° |
| 2026-05-04 13:33 | 51.14874 | -0.18604 | 216 ft | 162 kts | 78° |
| 2026-05-04 13:33 | 51.15120 | -0.16802 | 732 ft | 166 kts | 77° |
| 2026-05-04 13:33 | 51.15366 | -0.14993 | 1413 ft | 168 kts | 78° |
| 2026-05-04 13:34 | 51.15615 | -0.13176 | 2051 ft | 171 kts | 77° |
| 2026-05-04 13:34 | 51.15888 | -0.11204 | 2403 ft | 193 kts | 77° |
| 2026-05-04 13:34 | 51.16191 | -0.08998 | 2697 ft | 215 kts | 77° |
| 2026-05-04 13:34 | 51.16500 | -0.06745 | 2806 ft | 199 kts | 77° |
| 2026-05-04 13:35 | 51.16799 | -0.04572 | 2958 ft | 210 kts | 78° |
| 2026-05-04 13:35 | 51.16828 | 0.00599 | 3730 ft | 255 kts | 91° |
| 2026-05-04 13:35 | 51.16773 | 0.03480 | 4492 ft | 263 kts | 91° |
| 2026-05-04 13:36 | 51.16718 | 0.06425 | 5312 ft | 269 kts | 91° |
| 2026-05-04 13:36 | 51.16662 | 0.09428 | 6133 ft | 274 kts | 92° |
| 2026-05-04 13:36 | 51.16605 | 0.12493 | 6909 ft | 279 kts | 92° |
| 2026-05-04 13:36 | 51.16548 | 0.15596 | 7724 ft | 282 kts | 92° |
| 2026-05-04 13:37 | 51.16524 | 0.18740 | 8563 ft | 286 kts | 91° |
| 2026-05-04 13:37 | 51.16531 | 0.21918 | 9388 ft | 289 kts | 91° |
| 2026-05-04 13:37 | 51.16546 | 0.25095 | 10173 ft | 292 kts | 90° |
| 2026-05-04 13:37 | 51.16563 | 0.28343 | 10899 ft | 295 kts | 90° |
| 2026-05-04 13:38 | 51.16577 | 0.31633 | 11624 ft | 299 kts | 91° |
| 2026-05-04 13:38 | 51.16588 | 0.34963 | 12347 ft | 302 kts | 91° |
| 2026-05-04 13:38 | 51.16592 | 0.38331 | 13061 ft | 306 kts | 91° |
| 2026-05-04 13:38 | 51.16591 | 0.41738 | 13771 ft | 309 kts | 91° |
| 2026-05-04 13:39 | 51.16591 | 0.45188 | 14403 ft | 313 kts | 91° |
| 2026-05-04 13:39 | 51.16593 | 0.48659 | 15042 ft | 315 kts | 91° |
| 2026-05-04 13:39 | 51.16591 | 0.52230 | 15311 ft | 332 kts | 91° |
| 2026-05-04 13:39 | 51.16585 | 0.56024 | 15443 ft | 352 kts | 91° |
| 2026-05-04 13:40 | 51.16581 | 0.60032 | 15581 ft | 371 kts | 91° |
| 2026-05-04 13:40 | 51.16578 | 0.64200 | 15957 ft | 380 kts | 91° |
| 2026-05-04 13:40 | 51.16575 | 0.68434 | 16506 ft | 384 kts | 91° |
| 2026-05-04 13:40 | 51.16571 | 0.72709 | 17099 ft | 387 kts | 91° |
| 2026-05-04 13:41 | 51.16562 | 0.77010 | 17698 ft | 390 kts | 92° |
| 2026-05-04 13:41 | 51.16550 | 0.81351 | 18291 ft | 393 kts | 92° |
| 2026-05-04 13:41 | 51.16535 | 0.85728 | 18809 ft | 397 kts | 92° |
| 2026-05-04 13:42 | 51.16501 | 0.94592 | 19816 ft | 404 kts | 92° |
| 2026-05-04 13:42 | 51.16485 | 0.99080 | 20312 ft | 407 kts | 92° |
| 2026-05-04 13:42 | 51.16467 | 1.03603 | 20807 ft | 410 kts | 92° |
| 2026-05-04 13:42 | 51.16445 | 1.08161 | 21273 ft | 413 kts | 92° |
| 2026-05-04 13:43 | 51.16418 | 1.12745 | 21730 ft | 416 kts | 92° |
| 2026-05-04 13:43 | 51.16391 | 1.17377 | 22181 ft | 419 kts | 92° |
| 2026-05-04 13:43 | 51.16362 | 1.22040 | 22623 ft | 422 kts | 92° |
| 2026-05-04 13:43 | 51.16333 | 1.26737 | 23057 ft | 426 kts | 93° |
| 2026-05-04 13:44 | 51.16300 | 1.31468 | 23480 ft | 428 kts | 93° |
| 2026-05-04 13:44 | 51.16260 | 1.36229 | 23834 ft | 431 kts | 94° |
| 2026-05-04 13:44 | 51.16138 | 1.41010 | 24173 ft | 433 kts | 96° |
| 2026-05-04 13:44 | 51.15930 | 1.45804 | 24510 ft | 435 kts | 97° |
| 2026-05-04 13:45 | 51.15669 | 1.50600 | 24848 ft | 436 kts | 98° |
| 2026-05-04 13:45 | 51.15385 | 1.55436 | 25189 ft | 438 kts | 98° |
| 2026-05-04 13:45 | 51.15105 | 1.60269 | 25527 ft | 440 kts | 98° |
| 2026-05-04 13:45 | 51.14839 | 1.65135 | 25867 ft | 442 kts | 97° |
| 2026-05-04 13:46 | 51.14587 | 1.70021 | 26186 ft | 444 kts | 97° |
| 2026-05-04 13:46 | 51.14346 | 1.74936 | 26501 ft | 446 kts | 97° |
| 2026-05-04 13:46 | 51.14106 | 1.79864 | 26814 ft | 447 kts | 97° |
| 2026-05-04 13:46 | 51.13863 | 1.84821 | 27115 ft | 449 kts | 97° |
| 2026-05-04 13:47 | 51.13612 | 1.89790 | 27406 ft | 451 kts | 98° |
| 2026-05-04 13:47 | 51.13354 | 1.94766 | 27674 ft | 453 kts | 98° |
| 2026-05-04 13:47 | 51.13090 | 1.99786 | 27950 ft | 455 kts | 98° |
| 2026-05-04 13:47 | 51.12823 | 2.04812 | 28224 ft | 456 kts | 98° |
| 2026-05-04 13:48 | 51.12559 | 2.09848 | 28490 ft | 458 kts | 98° |
| 2026-05-04 13:48 | 51.12293 | 2.14901 | 28746 ft | 459 kts | 98° |
| 2026-05-04 13:48 | 51.12017 | 2.19974 | 28976 ft | 461 kts | 98° |
| 2026-05-04 13:48 | 51.11735 | 2.25068 | 29228 ft | 462 kts | 98° |
| 2026-05-04 13:49 | 51.11454 | 2.30156 | 29541 ft | 461 kts | 98° |
| 2026-05-04 13:49 | 51.11175 | 2.35221 | 29889 ft | 460 kts | 98° |
| 2026-05-04 13:49 | 51.10894 | 2.40295 | 30190 ft | 459 kts | 99° |
| 2026-05-04 13:49 | 51.10612 | 2.45341 | 30460 ft | 458 kts | 99° |
| 2026-05-04 13:50 | 51.10325 | 2.50391 | 30722 ft | 458 kts | 99° |
| 2026-05-04 13:50 | 51.10035 | 2.55436 | 30984 ft | 458 kts | 99° |
| 2026-05-04 13:50 | 51.09745 | 2.60480 | 31244 ft | 458 kts | 99° |
| 2026-05-04 13:50 | 51.09345 | 2.65488 | 31498 ft | 454 kts | 106° |
| 2026-05-04 13:51 | 51.08557 | 2.70310 | 31757 ft | 451 kts | 111° |
| 2026-05-04 13:51 | 51.07686 | 2.75097 | 32011 ft | 451 kts | 111° |
| 2026-05-04 13:51 | 51.06816 | 2.79882 | 32270 ft | 450 kts | 111° |
| 2026-05-04 13:51 | 51.05946 | 2.84667 | 32519 ft | 450 kts | 111° |
| 2026-05-04 13:52 | 51.04207 | 2.94222 | 32974 ft | 450 kts | 111° |
| 2026-05-04 13:52 | 51.03925 | 2.95772 | 32990 ft | 450 kts | 111° |